createdAt,value
2022-11-25T00:01:24.326Z,3.05
2022-11-25T00:03:52.326Z,2.78
2022-11-25T00:06:22.107Z,2.90
2022-11-25T00:08:51.115Z,2.95
2022-11-25T00:11:18.591Z,3.15
2022-11-25T00:16:14.748Z,3.25
2022-11-25T00:18:45.635Z,3.30
2022-11-25T00:21:14.410Z,3.75
2022-11-25T00:23:41.474Z,3.80
2022-11-25T00:26:13.209Z,4.00
2022-11-25T00:28:41.134Z,3.85
2022-11-25T00:31:08.553Z,3.85
2022-11-25T00:36:03.113Z,4.00
2022-11-25T00:38:29.973Z,3.92
2022-11-25T00:41:15.132Z,3.78
2022-11-25T00:44:00.486Z,3.42
2022-11-25T00:46:27.013Z,3.53
2022-11-25T00:48:53.533Z,3.27
2022-11-25T00:51:20.116Z,4.10
2022-11-25T00:53:46.623Z,4.17
2022-11-25T00:56:13.173Z,3.73
2022-11-25T00:58:40.636Z,3.27
2022-11-25T01:01:07.674Z,3.22
2022-11-25T01:03:35.133Z,4.20
2022-11-25T01:08:33.045Z,3.30
2022-11-25T01:11:04.470Z,3.50
2022-11-25T01:13:31.100Z,3.30
2022-11-25T01:15:57.816Z,3.50
2022-11-25T01:18:24.362Z,3.38
2022-11-25T01:20:50.862Z,3.20
2022-11-25T01:23:17.391Z,3.30
2022-11-25T01:25:43.981Z,2.13
2022-11-25T01:28:10.505Z,2.90
2022-11-25T01:30:41.061Z,2.90
2022-11-25T01:33:07.860Z,3.17
2022-11-25T01:35:37.616Z,3.30
2022-11-25T01:38:04.511Z,3.03
2022-11-25T01:40:31.069Z,3.60
2022-11-25T01:42:57.582Z,3.70
2022-11-25T01:45:28.012Z,4.33
2022-11-25T01:48:02.506Z,4.13
2022-11-25T01:50:29.621Z,3.47
2022-11-25T01:52:56.828Z,3.70
2022-11-25T01:55:30.942Z,3.10
2022-11-25T01:58:04.577Z,3.42
2022-11-25T02:00:31.338Z,3.28
2022-11-25T02:02:58.965Z,2.50
2022-11-25T02:05:47.309Z,2.70
2022-11-25T02:08:15.572Z,2.78
2022-11-25T02:10:44.515Z,2.67
2022-11-25T02:13:11.588Z,2.83
2022-11-25T02:15:38.164Z,3.22
2022-11-25T02:18:04.996Z,2.80
2022-11-25T02:20:31.629Z,3.30
2022-11-25T02:23:04.257Z,2.70
2022-11-25T02:25:40.328Z,2.95
2022-11-25T02:28:16.043Z,3.00
2022-11-25T02:30:43.327Z,3.30
2022-11-25T02:33:10.624Z,3.08
2022-11-25T02:35:38.685Z,4.38
2022-11-25T02:38:06.605Z,3.60
2022-11-25T02:40:39.493Z,3.22
2022-11-25T02:43:06.111Z,3.42
2022-11-25T02:46:03.582Z,3.25
2022-11-25T02:49:06.956Z,3.10
2022-11-25T02:51:23.018Z,3.30
2022-11-25T02:53:50.486Z,3.50
2022-11-25T03:01:10.824Z,2.90
2022-11-25T03:03:37.970Z,2.97
2022-11-25T03:06:04.760Z,3.10
2022-11-25T03:08:31.378Z,2.95
2022-11-25T03:10:57.904Z,3.25
2022-11-25T03:13:24.700Z,3.00
2022-11-25T03:15:51.210Z,3.17
2022-11-25T03:18:17.785Z,3.10
2022-11-25T03:20:44.284Z,3.10
2022-11-25T03:23:11.163Z,3.13
2022-11-25T03:25:37.941Z,3.60
2022-11-25T03:28:04.876Z,2.95
2022-11-25T03:30:32.073Z,3.00
2022-11-25T03:32:58.625Z,2.92
2022-11-25T03:35:25.173Z,3.33
2022-11-25T03:37:51.685Z,3.17
2022-11-25T03:40:18.725Z,2.93
2022-11-25T03:42:45.829Z,2.72
2022-11-25T03:45:13.988Z,2.78
2022-11-25T03:47:44.264Z,3.03
2022-11-25T03:50:12.945Z,2.95
2022-11-25T03:52:39.496Z,3.30
2022-11-25T03:55:06.788Z,3.13
2022-11-25T03:57:34.113Z,3.30
2022-11-25T04:00:00.833Z,3.13
2022-11-25T04:02:27.548Z,3.00
2022-11-25T04:04:54.065Z,3.45
2022-11-25T04:07:20.671Z,3.70
2022-11-25T04:09:47.273Z,3.33
2022-11-25T04:12:32.204Z,2.97
2022-11-25T04:14:58.771Z,3.15
2022-11-25T04:17:25.348Z,3.20
2022-11-25T04:19:51.932Z,2.80
2022-11-25T04:22:18.432Z,2.93
2022-11-25T04:24:44.961Z,3.30
2022-11-25T04:27:11.487Z,3.00
2022-11-25T04:29:38.005Z,3.37
2022-11-25T04:32:04.857Z,2.17
2022-11-25T04:34:31.366Z,2.83
2022-11-25T04:36:57.863Z,3.07
2022-11-25T04:39:24.386Z,2.67
2022-11-25T04:42:10.863Z,2.77
2022-11-25T04:44:37.636Z,3.65
2022-11-25T04:47:04.465Z,3.10
2022-11-25T04:49:31.073Z,3.33
2022-11-25T04:51:57.599Z,3.30
2022-11-25T04:54:24.185Z,3.43
2022-11-25T04:56:50.715Z,3.30
2022-11-25T04:59:35.936Z,2.60
2022-11-25T05:02:02.517Z,3.15
2022-11-25T05:04:29.113Z,3.10
2022-11-25T05:06:55.676Z,3.22
2022-11-25T05:09:22.238Z,3.80
2022-11-25T05:11:49.521Z,3.67
2022-11-25T05:14:16.085Z,4.97
2022-11-25T05:16:42.727Z,4.37
2022-11-25T05:19:09.367Z,4.15
2022-11-25T05:21:35.893Z,3.57
2022-11-25T05:24:02.436Z,4.30
2022-11-25T05:26:28.942Z,3.80
2022-11-25T05:28:55.451Z,4.03
2022-11-25T05:31:22.064Z,3.70
2022-11-25T05:33:48.677Z,3.55
2022-11-25T05:36:15.435Z,3.20
2022-11-25T05:38:42.663Z,3.28
2022-11-25T05:41:11.184Z,3.72
2022-11-25T05:43:37.943Z,3.83
2022-11-25T05:46:06.384Z,3.95
2022-11-25T05:48:33.414Z,3.22
2022-11-25T05:51:01.182Z,3.55
2022-11-25T05:53:28.184Z,3.55
2022-11-25T05:55:59.824Z,3.85
2022-11-25T05:58:26.527Z,3.58
2022-11-25T06:00:53.113Z,3.88
2022-11-25T06:03:19.731Z,6.68
2022-11-25T06:05:46.409Z,5.70
2022-11-25T06:08:12.983Z,3.78
2022-11-25T06:10:40.826Z,3.60
2022-11-25T06:13:08.825Z,3.60
2022-11-25T06:15:41.681Z,3.80
2022-11-25T06:18:09.134Z,3.60
2022-11-25T06:23:02.376Z,2.92
2022-11-25T06:25:30.391Z,2.67
2022-11-25T06:28:12.461Z,3.33
2022-11-25T06:30:39.965Z,2.67
2022-11-25T06:33:06.559Z,4.40
2022-11-25T06:35:33.091Z,4.32
2022-11-25T06:37:59.927Z,3.37
2022-11-25T06:40:26.526Z,3.15
2022-11-25T06:42:53.089Z,4.13
2022-11-25T06:45:19.736Z,3.65
2022-11-25T06:47:46.323Z,3.90
2022-11-25T06:50:12.867Z,3.53
2022-11-25T06:52:39.431Z,2.93
2022-11-25T06:55:06.359Z,3.17
2022-11-25T06:57:32.950Z,2.47
2022-11-25T06:59:59.534Z,2.65
2022-11-25T07:02:26.127Z,2.35
2022-11-25T07:04:53.809Z,2.50
2022-11-25T07:07:20.499Z,2.97
2022-11-25T07:09:49.660Z,3.20
2022-11-25T07:12:16.257Z,3.45
2022-11-25T07:14:42.852Z,3.67
2022-11-25T07:17:12.247Z,2.30
2022-11-25T07:19:39.095Z,2.40
2022-11-25T07:22:05.691Z,2.60
2022-11-25T07:24:33.886Z,1.95
2022-11-25T07:27:00.683Z,2.15
2022-11-25T07:30:03.123Z,2.37
2022-11-25T07:32:14.488Z,1.95
2022-11-25T07:34:41.077Z,1.93
2022-11-25T07:37:08.217Z,2.00
2022-11-25T07:39:35.244Z,2.38
2022-11-25T07:42:01.971Z,1.98
2022-11-25T07:44:28.479Z,1.80
2022-11-25T07:46:55.425Z,2.33
2022-11-25T07:49:25.504Z,1.85
2022-11-25T07:51:53.918Z,1.80
2022-11-25T07:54:22.133Z,1.70
2022-11-25T07:56:49.869Z,1.65
2022-11-25T07:59:19.667Z,1.90
2022-11-25T08:01:46.716Z,1.67
2022-11-25T08:04:19.672Z,1.80
2022-11-25T08:06:48.637Z,2.13
2022-11-25T08:09:20.354Z,2.17
2022-11-25T08:11:47.937Z,1.92
2022-11-25T08:14:15.758Z,1.85
2022-11-25T08:16:42.609Z,1.90
2022-11-25T08:19:11.888Z,2.35
2022-11-25T08:21:38.448Z,1.77
2022-11-25T08:24:06.065Z,2.00
2022-11-25T08:26:37.562Z,1.90
2022-11-25T08:29:06.299Z,1.67
2022-11-25T08:31:38.016Z,1.90
2022-11-25T08:34:06.668Z,1.95
2022-11-25T08:36:34.347Z,2.13
2022-11-25T08:39:12.651Z,1.80
2022-11-25T08:41:49.401Z,1.63
2022-11-25T08:44:16.322Z,2.00
2022-11-25T08:46:43.051Z,1.80
2022-11-25T08:49:10.782Z,1.48
2022-11-25T08:51:38.108Z,1.60
2022-11-25T08:59:00.136Z,1.80
2022-11-25T09:01:26.887Z,1.80
2022-11-25T09:03:55.822Z,1.90
2022-11-25T09:06:24.433Z,1.90
2022-11-25T09:08:51.162Z,1.75
2022-11-25T09:11:17.831Z,2.80
2022-11-25T09:13:44.639Z,3.30
2022-11-25T09:16:11.485Z,2.42
2022-11-25T09:18:38.187Z,1.92
2022-11-25T09:21:10.775Z,2.20
2022-11-25T09:23:39.242Z,2.17
2022-11-25T09:26:07.533Z,2.17
2022-11-25T09:28:35.602Z,6.25
2022-11-25T09:31:09.764Z,11.10
2022-11-25T09:33:36.964Z,13.40
2022-11-25T09:36:05.964Z,3.28
2022-11-25T09:38:32.667Z,3.08
2022-11-25T09:41:05.056Z,2.50
2022-11-25T09:44:06.905Z,2.28
2022-11-25T09:47:08.684Z,2.53
2022-11-25T09:49:44.217Z,2.65
2022-11-25T09:52:22.155Z,2.83
2022-11-25T09:54:51.787Z,2.45
2022-11-25T09:57:27.294Z,2.40
2022-11-25T09:59:53.772Z,2.75
2022-11-25T10:02:29.681Z,2.67
2022-11-25T10:05:08.605Z,2.60
2022-11-25T10:07:41.526Z,2.40
2022-11-25T10:10:25.912Z,3.70
2022-11-25T10:12:55.583Z,3.35
2022-11-25T10:15:32.670Z,3.45
2022-11-25T10:18:35.343Z,2.38
2022-11-25T10:21:01.871Z,3.45
2022-11-25T10:23:40.053Z,2.40
2022-11-25T10:26:15.160Z,2.70
2022-11-25T10:28:53.371Z,2.95
2022-11-25T10:31:24.047Z,2.28
2022-11-25T10:33:54.037Z,2.42
2022-11-25T10:36:26.508Z,2.53
2022-11-25T10:39:05.264Z,3.20
2022-11-25T10:41:37.070Z,4.10
2022-11-25T10:44:04.405Z,3.33
2022-11-25T10:47:11.145Z,2.00
2022-11-25T10:49:34.240Z,2.05
2022-11-25T10:52:00.830Z,1.85
2022-11-25T10:54:28.868Z,1.97
2022-11-25T10:56:57.050Z,2.45
2022-11-25T10:59:36.686Z,1.83
2022-11-25T11:02:24.738Z,1.48
2022-11-25T11:04:56.050Z,1.40
2022-11-25T11:07:24.100Z,1.15
2022-11-25T11:09:50.945Z,1.73
2022-11-25T11:12:26.681Z,1.60
2022-11-25T11:15:18.756Z,1.45
2022-11-25T11:17:45.388Z,1.90
2022-11-25T11:20:27.207Z,2.67
2022-11-25T11:23:08.432Z,2.10
2022-11-25T11:25:37.659Z,1.90
2022-11-25T11:28:43.557Z,1.48
2022-11-25T11:31:25.092Z,1.23
2022-11-25T11:34:01.831Z,1.08
2022-11-25T11:36:38.622Z,1.52
2022-11-25T11:39:38.187Z,1.20
2022-11-25T11:42:10.909Z,3.42
2022-11-25T11:45:12.292Z,1.45
2022-11-25T11:47:50.934Z,1.42
2022-11-25T11:50:29.782Z,1.65
2022-11-25T11:53:20.853Z,3.60
2022-11-25T11:56:34.176Z,2.47
2022-11-25T11:59:08.203Z,1.50
2022-11-25T12:02:13.018Z,1.60
2022-11-25T12:04:47.261Z,1.60
2022-11-25T12:07:21.897Z,1.50
2022-11-25T12:10:03.080Z,1.73
2022-11-25T12:12:38.747Z,1.50
2022-11-25T12:15:42.970Z,1.50
2022-11-25T12:18:23.825Z,1.50
2022-11-25T12:21:03.662Z,1.95
2022-11-25T12:23:44.799Z,2.00
2022-11-25T12:26:18.312Z,1.77
2022-11-25T12:29:05.570Z,2.33
2022-11-25T12:31:42.098Z,2.20
2022-11-25T12:34:31.117Z,1.70
2022-11-25T12:37:13.428Z,2.50
2022-11-25T12:39:48.474Z,1.90
2022-11-25T12:42:25.450Z,2.10
2022-11-25T12:44:59.293Z,2.00
2022-11-25T12:47:27.008Z,2.42
2022-11-25T12:49:55.317Z,2.53
2022-11-25T12:52:24.561Z,2.63
2022-11-25T12:55:13.407Z,2.70
2022-11-25T12:57:55.112Z,2.60
2022-11-25T13:00:43.229Z,3.30
2022-11-25T13:03:42.219Z,2.20
2022-11-25T13:06:33.673Z,2.78
2022-11-25T13:09:15.153Z,2.70
2022-11-25T13:11:47.962Z,2.50
2022-11-25T13:14:49.363Z,2.70
2022-11-25T13:17:17.554Z,3.10
2022-11-25T13:19:44.453Z,2.50
2022-11-25T13:22:29.945Z,2.40
2022-11-25T13:24:58.473Z,2.53
2022-11-25T13:27:53.812Z,4.15
2022-11-25T13:30:32.671Z,2.42
2022-11-25T13:33:22.344Z,2.65
2022-11-25T13:35:56.239Z,2.33
2022-11-25T13:38:37.081Z,2.60
2022-11-25T13:41:15.414Z,2.60
2022-11-25T13:44:40.701Z,2.90
2022-11-25T13:47:28.392Z,3.33
2022-11-25T13:49:58.924Z,3.13
2022-11-25T13:52:33.798Z,3.30
2022-11-25T13:55:03.092Z,3.33
2022-11-25T13:57:31.234Z,4.30
2022-11-25T13:59:58.037Z,3.30
2022-11-25T14:02:27.869Z,4.43
2022-11-25T14:05:03.884Z,3.95
2022-11-25T14:07:38.630Z,3.50
2022-11-25T14:10:26.387Z,3.72
2022-11-25T14:12:58.962Z,7.80
2022-11-25T14:15:36.667Z,8.10
2022-11-25T14:18:53.132Z,4.90
2022-11-25T14:22:08.715Z,4.38
2022-11-25T14:24:45.739Z,4.50
2022-11-25T14:27:19.614Z,4.40
2022-11-25T14:30:07.391Z,3.50
2022-11-25T14:32:59.717Z,3.58
2022-11-25T14:35:29.307Z,3.70
2022-11-25T14:38:07.332Z,4.28
2022-11-25T14:40:48.046Z,3.97
2022-11-25T14:43:22.019Z,4.28
2022-11-25T14:46:08.488Z,4.28
2022-11-25T14:48:35.102Z,5.70
2022-11-25T14:51:07.127Z,5.50
2022-11-25T14:53:47.334Z,4.28
2022-11-25T14:56:27.019Z,3.83
2022-11-25T14:58:56.272Z,3.45
2022-11-25T15:01:30.201Z,4.28
2022-11-25T15:04:06.022Z,5.07
2022-11-25T15:06:38.254Z,4.20
2022-11-25T15:09:19.010Z,3.80
2022-11-25T15:11:46.226Z,4.13
2022-11-25T15:14:24.066Z,4.70
2022-11-25T15:16:51.203Z,5.38
2022-11-25T15:19:20.914Z,5.05
2022-11-25T15:22:21.771Z,6.57
2022-11-25T15:24:48.899Z,5.57
2022-11-25T15:27:21.574Z,5.95
2022-11-25T15:29:49.339Z,6.25
2022-11-25T15:32:27.803Z,5.68
2022-11-25T15:34:57.439Z,7.13
2022-11-25T15:37:24.253Z,5.82
2022-11-25T15:40:11.152Z,4.68
2022-11-25T15:42:37.716Z,8.02
2022-11-25T15:45:10.731Z,10.70
2022-11-25T15:47:37.310Z,8.02
2022-11-25T15:50:24.645Z,9.40
2022-11-25T15:52:56.894Z,13.13
2022-11-25T15:55:32.557Z,11.07
2022-11-25T15:58:08.036Z,11.95
2022-11-25T16:00:34.614Z,7.22
2022-11-25T16:03:01.306Z,5.10
2022-11-25T16:05:36.558Z,5.32
2022-11-25T16:08:36.470Z,4.60
2022-11-25T16:11:21.083Z,5.32
2022-11-25T16:13:49.543Z,5.18
2022-11-25T16:16:16.231Z,4.80
2022-11-25T16:18:51.742Z,5.05
2022-11-25T16:21:24.715Z,5.88
2022-11-25T16:23:59.898Z,5.90
2022-11-25T16:26:32.889Z,5.72
2022-11-25T16:29:01.734Z,5.60
2022-11-25T16:31:28.862Z,6.15
2022-11-25T16:34:00.530Z,5.57
2022-11-25T16:36:27.215Z,4.68
2022-11-25T16:38:57.020Z,4.38
2022-11-25T16:41:25.569Z,4.30
2022-11-25T16:43:52.161Z,4.32
2022-11-25T16:46:20.145Z,4.30
2022-11-25T16:48:47.379Z,4.57
2022-11-25T16:51:17.014Z,4.50
2022-11-25T16:53:44.906Z,4.05
2022-11-25T16:56:28.167Z,4.72
2022-11-25T16:58:55.091Z,4.50
2022-11-25T17:01:24.992Z,3.95
2022-11-25T17:03:52.346Z,4.93
2022-11-25T17:06:22.570Z,4.25
2022-11-25T17:08:50.266Z,3.70
2022-11-25T17:14:31.054Z,6.45
2022-11-25T17:16:59.738Z,6.13
2022-11-25T17:19:26.511Z,5.50
2022-11-25T17:21:53.167Z,5.38
2022-11-25T17:24:24.319Z,4.43
2022-11-25T17:27:00.498Z,4.22
2022-11-25T17:29:37.667Z,4.05
2022-11-25T17:34:36.323Z,4.45
2022-11-25T17:37:13.068Z,4.30
2022-11-25T17:39:39.868Z,4.85
2022-11-25T17:42:06.614Z,4.97
2022-11-25T17:44:33.414Z,5.20
2022-11-25T17:47:00.059Z,5.00
2022-11-25T17:49:26.592Z,6.10
2022-11-25T17:51:53.928Z,6.80
2022-11-25T17:56:52.105Z,9.85
2022-11-25T17:59:37.437Z,9.48
2022-11-25T18:02:18.401Z,10.38
2022-11-25T18:04:45.128Z,11.13
2022-11-25T18:07:11.712Z,7.88
2022-11-25T18:09:38.337Z,7.28
2022-11-25T18:12:10.440Z,6.70
2022-11-25T18:14:38.758Z,7.80
2022-11-25T18:17:07.603Z,9.45
2022-11-25T18:19:35.024Z,9.43
2022-11-25T18:24:37.053Z,9.68
2022-11-25T18:27:05.626Z,16.02
2022-11-25T18:29:32.705Z,16.52
2022-11-25T18:31:59.651Z,11.60
2022-11-25T18:34:26.893Z,7.95
2022-11-25T18:36:54.119Z,8.93
2022-11-25T18:39:20.683Z,9.85
2022-11-25T18:41:50.054Z,5.93
2022-11-25T18:44:26.154Z,8.15
2022-11-25T18:46:53.667Z,9.25
2022-11-25T18:49:20.762Z,10.02
2022-11-25T18:51:47.900Z,13.77
2022-11-25T18:54:14.445Z,10.73
2022-11-25T18:56:41.962Z,9.17
2022-11-25T18:59:15.242Z,10.70
2022-11-25T19:01:46.841Z,11.27
2022-11-25T19:04:16.472Z,12.13
2022-11-25T19:06:43.651Z,6.95
2022-11-25T19:09:10.399Z,5.57
2022-11-25T19:11:41.721Z,4.78
2022-11-25T19:14:16.379Z,4.07
2022-11-25T19:16:43.916Z,5.18
2022-11-25T19:19:16.251Z,6.00
2022-11-25T19:21:43.029Z,4.50
2022-11-25T19:24:14.129Z,3.90
2022-11-25T19:26:47.051Z,3.45
2022-11-25T19:29:42.055Z,5.88
2022-11-25T19:32:19.214Z,10.40
2022-11-25T19:34:50.033Z,7.40
2022-11-25T19:37:21.719Z,6.63
2022-11-25T19:39:50.906Z,4.13
2022-11-25T19:42:17.741Z,4.68
2022-11-25T19:44:45.860Z,4.80
2022-11-25T19:47:32.793Z,4.45
2022-11-25T19:50:01.490Z,4.43
2022-11-25T19:52:35.826Z,4.40
2022-11-25T19:55:12.646Z,4.00
2022-11-25T19:57:39.204Z,4.30
2022-11-25T20:00:07.633Z,4.15
2022-11-25T20:02:34.233Z,4.88
2022-11-25T20:05:01.214Z,2.78
2022-11-25T20:07:29.521Z,3.10
2022-11-25T20:09:59.094Z,3.70
2022-11-25T20:12:29.692Z,4.45
2022-11-25T20:14:56.373Z,3.65
2022-11-25T20:17:32.650Z,3.47
2022-11-25T20:20:06.197Z,3.37
2022-11-25T20:22:36.679Z,3.97
2022-11-25T20:25:07.255Z,3.30
2022-11-25T20:27:34.257Z,3.40
2022-11-25T20:30:00.869Z,3.35
2022-11-25T20:32:29.659Z,3.03
2022-11-25T20:34:57.346Z,3.35
2022-11-25T20:37:25.074Z,3.45
2022-11-25T20:39:57.438Z,3.40
2022-11-25T20:42:25.218Z,3.30
2022-11-25T20:44:56.029Z,4.03
2022-11-25T20:47:26.291Z,3.58
2022-11-25T20:49:53.670Z,2.83
2022-11-25T20:52:33.682Z,3.28
2022-11-25T20:55:02.851Z,3.15
2022-11-25T20:57:29.437Z,3.15
2022-11-25T20:59:56.019Z,3.25
2022-11-25T21:02:22.556Z,3.55
2022-11-25T21:04:49.168Z,3.25
2022-11-25T21:07:17.869Z,4.07
2022-11-25T21:09:44.712Z,3.90
2022-11-25T21:12:19.268Z,4.07
2022-11-25T21:14:46.587Z,4.65
2022-11-25T21:17:13.174Z,5.20
2022-11-25T21:19:39.626Z,4.40
2022-11-25T21:22:06.418Z,3.92
2022-11-25T21:24:40.323Z,4.32
2022-11-25T21:27:17.355Z,4.05
2022-11-25T21:29:46.145Z,6.47
2022-11-25T21:32:23.683Z,7.13
2022-11-25T21:34:50.650Z,5.63
2022-11-25T21:37:19.385Z,5.47
2022-11-25T21:39:45.977Z,5.75
2022-11-25T21:42:18.486Z,6.50
2022-11-25T21:44:46.686Z,5.22
2022-11-25T21:47:18.633Z,4.75
2022-11-25T21:49:46.231Z,4.82
2022-11-25T21:52:13.273Z,4.22
2022-11-25T21:54:40.620Z,3.58
2022-11-25T21:59:40.671Z,3.60
2022-11-25T22:02:19.405Z,2.17
2022-11-25T22:04:46.385Z,3.40
2022-11-25T22:07:13.163Z,3.53
2022-11-25T22:09:40.445Z,3.42
2022-11-25T22:17:07.485Z,3.47
2022-11-25T22:19:34.244Z,3.22
2022-11-25T22:22:00.854Z,3.08
2022-11-25T22:24:27.450Z,2.60
2022-11-25T22:26:57.848Z,2.95
2022-11-25T22:29:30.346Z,3.10
2022-11-25T22:31:56.969Z,3.20
2022-11-25T22:34:25.021Z,3.72
2022-11-25T22:36:52.012Z,9.70
2022-11-25T22:39:21.433Z,25.90
2022-11-25T22:41:53.662Z,35.38
2022-11-25T22:44:20.191Z,31.38
2022-11-25T22:46:47.754Z,26.27
2022-11-25T22:49:31.144Z,12.60
2022-11-25T22:51:59.084Z,12.55
2022-11-25T22:54:25.799Z,12.40
2022-11-25T22:56:52.371Z,13.10
2022-11-25T22:59:18.957Z,12.77
2022-11-25T23:01:45.936Z,12.18
2022-11-25T23:04:20.364Z,11.65
2022-11-25T23:06:47.628Z,12.02
2022-11-25T23:09:17.083Z,13.40
2022-11-25T23:11:44.221Z,8.10
2022-11-25T23:14:11.488Z,4.68
2022-11-25T23:16:39.753Z,4.20
2022-11-25T23:19:12.516Z,3.60
2022-11-25T23:21:39.078Z,4.00
2022-11-25T23:24:11.483Z,3.63
2022-11-25T23:26:38.163Z,3.55
2022-11-25T23:29:04.781Z,3.65
2022-11-25T23:31:35.425Z,3.78
2022-11-25T23:34:05.967Z,3.38
2022-11-25T23:36:48.322Z,3.67
2022-11-25T23:39:20.646Z,3.45
2022-11-25T23:41:47.924Z,3.55
2022-11-25T23:44:25.782Z,3.83
2022-11-25T23:46:54.953Z,3.63
2022-11-25T23:49:30.131Z,3.80
2022-11-25T23:52:04.655Z,3.25
2022-11-25T23:54:40.753Z,3.55
2022-11-25T23:57:30.349Z,3.50
2022-11-25T23:59:56.920Z,4.35
